Cleveland, Ohio
Traffic Map
Current Weather Conditions
Cleveland, Ohio
Clear
Clear
61°
Feels Like: 61°
Wind Chill: 61° Ceiling: Unl
Heat Index: 61° Visibility: 10mi
Dew Point: 46° Wind: 8mph
Humidity: 58% Direction: 110° (ESE)
Pressure: 30.21in Gusts: 0mph
Raw Report DataKBKL 250253Z 11007KT 10SM CLR 16/08 A3021 RMK AO2 SLP227 T01610078 50006
Traffic Incident Summary
Active as of:
Severity:
Category:
InformationThere was an issue retrieving the traffic information for this location. Please try a different location or try again shortly.
Advertisements
Track Severe Weather on mobile